createdAt,value
2019-03-05T00:02:21.367Z,99.90
2019-03-05T00:07:07.067Z,99.90
2019-03-05T00:11:53.140Z,99.90
2019-03-05T00:16:38.859Z,99.90
2019-03-05T00:21:25.335Z,99.90
2019-03-05T00:26:11.062Z,99.90
2019-03-05T00:31:19.529Z,99.90
2019-03-05T00:36:36.057Z,92.60
2019-03-05T00:41:51.748Z,82.00
2019-03-05T00:47:07.074Z,75.60
2019-03-05T00:52:22.503Z,79.70
2019-03-05T00:57:38.223Z,78.30
2019-03-05T01:02:41.644Z,74.70
2019-03-05T01:07:30.681Z,73.20
2019-03-05T01:12:16.660Z,69.10
2019-03-05T01:17:02.362Z,67.50
2019-03-05T01:21:48.059Z,67.00
2019-03-05T01:26:33.880Z,70.40
2019-03-05T01:31:47.816Z,75.60
2019-03-05T01:36:36.059Z,78.50
2019-03-05T01:41:22.063Z,85.20
2019-03-05T01:46:07.862Z,89.20
2019-03-05T01:50:53.622Z,85.30
2019-03-05T01:55:39.361Z,87.00
2019-03-05T02:00:25.471Z,88.30
2019-03-05T02:05:11.454Z,90.30
2019-03-05T02:09:57.747Z,93.90
2019-03-05T02:14:43.596Z,96.40
2019-03-05T02:19:49.019Z,99.90
2019-03-05T02:25:00.056Z,99.90
2019-03-05T02:30:20.747Z,99.90
2019-03-05T02:35:15.577Z,99.90
2019-03-05T02:40:17.139Z,99.90
2019-03-05T02:45:31.564Z,99.90
2019-03-05T02:50:53.602Z,99.90
2019-03-05T02:56:13.238Z,99.90
2019-03-05T03:01:25.643Z,99.90
2019-03-05T03:06:15.341Z,99.90
2019-03-05T03:11:01.165Z,99.90
2019-03-05T03:15:46.872Z,99.90
2019-03-05T03:20:32.664Z,99.90
2019-03-05T03:25:22.942Z,99.90
2019-03-05T03:30:10.751Z,99.90
2019-03-05T03:34:56.452Z,99.90
2019-03-05T03:39:42.137Z,99.90
2019-03-05T03:44:27.754Z,99.90
2019-03-05T03:49:13.526Z,99.90
2019-03-05T03:53:59.174Z,99.90
2019-03-05T03:58:44.889Z,99.90
2019-03-05T04:03:30.824Z,99.90
2019-03-05T04:08:16.660Z,93.70
2019-03-05T04:13:02.352Z,94.10
2019-03-05T04:17:48.119Z,94.60
2019-03-05T04:22:33.929Z,95.80
2019-03-05T04:27:19.704Z,95.80
2019-03-05T04:32:08.396Z,95.80
2019-03-05T04:36:54.194Z,95.50
2019-03-05T04:41:39.870Z,97.80
2019-03-05T04:46:37.958Z,99.90
2019-03-05T04:51:32.853Z,99.90
2019-03-05T04:56:18.576Z,99.90
2019-03-05T05:01:04.406Z,99.90
2019-03-05T05:05:50.203Z,99.90
2019-03-05T05:10:35.891Z,99.90
2019-03-05T05:15:26.865Z,99.90
2019-03-05T05:20:12.556Z,99.90
2019-03-05T05:24:58.282Z,99.90
2019-03-05T05:29:44.416Z,99.90
2019-03-05T05:34:30.131Z,99.90
2019-03-05T05:39:51.608Z,99.90
2019-03-05T05:44:37.592Z,99.90
2019-03-05T05:49:23.614Z,99.90
2019-03-05T05:54:09.326Z,99.90
2019-03-05T05:58:55.138Z,99.90
2019-03-05T06:03:41.086Z,99.90
2019-03-05T06:08:27.139Z,99.90
2019-03-05T06:13:16.203Z,99.90
2019-03-05T06:18:01.954Z,99.90
2019-03-05T06:22:47.729Z,99.90
2019-03-05T06:27:33.484Z,99.90
2019-03-05T06:32:19.303Z,99.90
2019-03-05T06:37:05.086Z,99.90
2019-03-05T06:41:53.377Z,99.90
2019-03-05T06:46:39.158Z,99.90
2019-03-05T06:51:24.877Z,99.90
2019-03-05T06:56:10.641Z,99.90
2019-03-05T07:00:56.510Z,99.90
2019-03-05T07:06:17.860Z,99.90
2019-03-05T07:11:33.097Z,99.90
2019-03-05T07:16:43.941Z,99.90
2019-03-05T07:21:57.952Z,99.90
2019-03-05T07:26:43.757Z,99.90
2019-03-05T07:31:29.599Z,99.90
2019-03-05T07:36:15.699Z,99.90
2019-03-05T07:41:01.426Z,99.90
2019-03-05T07:45:47.252Z,99.90
2019-03-05T07:50:33.060Z,99.90
2019-03-05T07:55:19.212Z,99.90
2019-03-05T08:00:05.762Z,99.90
2019-03-05T08:04:51.753Z,99.90
2019-03-05T08:09:40.534Z,99.90
2019-03-05T08:15:11.718Z,99.90
2019-03-05T08:19:57.433Z,99.90
2019-03-05T08:24:45.336Z,99.90
2019-03-05T08:29:31.093Z,99.90
2019-03-05T08:34:16.847Z,99.90
2019-03-05T08:39:04.170Z,99.90
2019-03-05T08:43:49.859Z,99.90
2019-03-05T08:48:35.592Z,99.90
2019-03-05T08:53:21.343Z,99.90
2019-03-05T08:58:07.112Z,99.90
2019-03-05T09:02:52.815Z,99.90
2019-03-05T09:07:38.652Z,99.90
2019-03-05T09:12:24.778Z,99.90
2019-03-05T09:17:10.708Z,99.90
2019-03-05T09:21:56.419Z,97.00
2019-03-05T09:26:50.703Z,92.50
2019-03-05T09:31:29.812Z,87.60
2019-03-05T09:36:15.692Z,80.90
2019-03-05T09:41:02.196Z,62.90
2019-03-05T09:45:47.929Z,55.70
2019-03-05T09:50:33.744Z,54.90
2019-03-05T09:55:27.004Z,58.10
2019-03-05T10:00:16.623Z,53.40
2019-03-05T10:05:02.615Z,57.60
2019-03-05T10:09:48.350Z,57.20
2019-03-05T10:14:34.469Z,58.40
2019-03-05T10:19:22.501Z,58.80
2019-03-05T10:24:10.707Z,55.60
2019-03-05T10:28:58.947Z,49.80
2019-03-05T10:33:44.875Z,43.80
2019-03-05T10:38:30.682Z,45.10
2019-03-05T10:43:16.828Z,42.00
2019-03-05T10:48:02.822Z,40.00
2019-03-05T10:52:48.855Z,37.80
2019-03-05T10:57:34.743Z,43.20
2019-03-05T11:02:21.797Z,41.80
2019-03-05T11:07:07.904Z,38.40
2019-03-05T11:11:53.995Z,40.10
2019-03-05T11:16:39.861Z,43.90
2019-03-05T11:21:25.792Z,41.10
2019-03-05T11:26:12.055Z,42.70
2019-03-05T11:30:57.939Z,37.60
2019-03-05T11:35:43.930Z,36.70
2019-03-05T11:40:30.082Z,33.10
2019-03-05T11:45:18.885Z,36.40
2019-03-05T11:50:05.188Z,31.60
2019-03-05T11:54:51.153Z,38.40
2019-03-05T11:59:36.985Z,38.50
2019-03-05T12:04:23.110Z,35.70
2019-03-05T12:09:09.309Z,37.40
2019-03-05T12:13:55.365Z,40.50
2019-03-05T12:18:41.562Z,45.10
2019-03-05T12:23:28.018Z,44.30
2019-03-05T12:28:14.123Z,41.10
2019-03-05T12:33:00.128Z,39.60
2019-03-05T12:37:46.490Z,39.00
2019-03-05T12:42:32.645Z,38.20
2019-03-05T12:47:18.424Z,37.20
2019-03-05T12:52:04.474Z,38.20
2019-03-05T12:56:50.407Z,42.70
2019-03-05T13:01:36.282Z,44.60
2019-03-05T13:06:22.149Z,46.70
2019-03-05T13:11:09.358Z,44.50
2019-03-05T13:15:57.777Z,48.10
2019-03-05T13:20:45.241Z,46.60
2019-03-05T13:25:31.007Z,48.30
2019-03-05T13:30:21.927Z,47.60
2019-03-05T13:35:08.797Z,48.70
2019-03-05T13:39:58.208Z,46.90
2019-03-05T13:44:42.765Z,44.70
2019-03-05T13:50:33.548Z,45.00
2019-03-05T13:56:14.268Z,45.70
2019-03-05T14:01:00.351Z,47.30
2019-03-05T14:06:16.041Z,48.40
2019-03-05T14:11:01.875Z,48.40
2019-03-05T14:15:47.938Z,47.40
2019-03-05T14:20:35.208Z,47.10
2019-03-05T14:25:21.722Z,46.00
2019-03-05T14:30:10.629Z,44.30
2019-03-05T14:35:02.326Z,43.70
2019-03-05T14:39:48.223Z,44.00
2019-03-05T14:44:39.832Z,42.50
2019-03-05T14:49:22.740Z,40.00
2019-03-05T14:54:11.162Z,40.50
2019-03-05T14:58:56.978Z,41.60
2019-03-05T15:03:42.892Z,44.10
2019-03-05T15:08:29.213Z,45.10
2019-03-05T15:13:17.329Z,45.80
2019-03-05T15:18:02.562Z,46.70
2019-03-05T15:22:48.694Z,48.50
2019-03-05T15:27:34.572Z,48.40
2019-03-05T15:32:20.556Z,47.90
2019-03-05T15:37:06.663Z,48.00
2019-03-05T15:41:52.677Z,48.70
2019-03-05T15:46:38.797Z,49.50
2019-03-05T15:51:24.749Z,49.00
2019-03-05T15:56:10.917Z,49.60
2019-03-05T16:00:56.906Z,48.70
2019-03-05T16:05:43.144Z,48.70
2019-03-05T16:10:29.416Z,49.00
2019-03-05T16:15:18.620Z,48.50
2019-03-05T16:20:04.375Z,48.80
2019-03-05T16:24:50.407Z,49.20
2019-03-05T16:29:36.661Z,49.80
2019-03-05T16:34:40.718Z,51.00
2019-03-05T16:39:53.564Z,50.10
2019-03-05T16:45:02.872Z,49.70
2019-03-05T16:50:10.770Z,50.30
2019-03-05T16:55:15.652Z,49.00
2019-03-05T17:00:21.435Z,50.10
2019-03-05T17:05:27.521Z,50.50
2019-03-05T17:10:36.277Z,50.80
2019-03-05T17:15:22.281Z,49.70
2019-03-05T17:20:10.086Z,49.90
2019-03-05T17:24:56.057Z,49.90
2019-03-05T17:29:42.270Z,50.50
2019-03-05T17:34:28.463Z,49.60
2019-03-05T17:39:23.141Z,53.40
2019-03-05T17:44:09.252Z,55.40
2019-03-05T17:48:55.643Z,57.40
2019-03-05T17:53:41.707Z,57.00
2019-03-05T17:58:27.646Z,59.90
2019-03-05T18:03:13.712Z,60.90
2019-03-05T18:07:59.817Z,62.60
2019-03-05T18:12:46.108Z,65.00
2019-03-05T18:17:33.566Z,62.40
2019-03-05T18:22:19.803Z,64.10
2019-03-05T18:27:05.872Z,64.00
2019-03-05T18:31:52.062Z,62.80
2019-03-05T18:36:38.075Z,59.60
2019-03-05T18:41:24.053Z,61.20
2019-03-05T18:46:10.255Z,64.80
2019-03-05T18:50:56.478Z,65.50
2019-03-05T18:55:42.282Z,66.10
2019-03-05T19:00:28.674Z,71.30
2019-03-05T19:05:16.181Z,75.20
2019-03-05T19:10:02.572Z,75.50
2019-03-05T19:14:48.838Z,73.80
2019-03-05T19:19:34.836Z,71.80
2019-03-05T19:24:20.781Z,71.40
2019-03-05T19:29:06.684Z,71.50
2019-03-05T19:33:53.109Z,79.50
2019-03-05T19:38:38.884Z,77.50
2019-03-05T19:43:24.936Z,73.60
2019-03-05T19:48:11.609Z,71.00
2019-03-05T19:52:57.867Z,69.80
2019-03-05T19:57:43.786Z,72.00
2019-03-05T20:02:30.049Z,75.00
2019-03-05T20:07:16.156Z,75.10
2019-03-05T20:12:02.459Z,75.50
2019-03-05T20:16:49.973Z,81.50
2019-03-05T20:21:36.610Z,84.00
2019-03-05T20:26:25.182Z,80.80
2019-03-05T20:31:11.627Z,78.60
2019-03-05T20:35:58.559Z,77.30
2019-03-05T20:40:47.581Z,79.20
2019-03-05T20:45:33.665Z,82.70
2019-03-05T20:50:19.735Z,84.00
2019-03-05T20:55:07.016Z,84.40
2019-03-05T20:59:54.361Z,84.10
2019-03-05T21:04:40.351Z,86.30
2019-03-05T21:09:26.515Z,89.60
2019-03-05T21:14:12.422Z,89.70
2019-03-05T21:18:58.407Z,99.90
2019-03-05T21:23:44.737Z,99.30
2019-03-05T21:28:30.620Z,99.90
2019-03-05T21:33:16.558Z,99.90
2019-03-05T21:38:02.471Z,99.90
2019-03-05T21:42:48.430Z,99.90
2019-03-05T21:47:34.596Z,99.60
2019-03-05T21:52:20.596Z,97.20
2019-03-05T21:57:06.990Z,99.90
2019-03-05T22:01:52.970Z,99.90
2019-03-05T22:06:38.816Z,99.90
2019-03-05T22:11:25.064Z,99.90
2019-03-05T22:16:10.947Z,99.90
2019-03-05T22:20:56.740Z,99.90
2019-03-05T22:25:42.794Z,99.90
2019-03-05T22:30:29.214Z,99.90
2019-03-05T22:35:16.688Z,99.90
2019-03-05T22:40:04.449Z,99.90
2019-03-05T22:44:50.203Z,99.90
2019-03-05T22:49:35.990Z,99.90
2019-03-05T22:54:21.702Z,99.90
2019-03-05T22:59:07.770Z,99.90
2019-03-05T23:04:00.762Z,99.90
2019-03-05T23:08:46.732Z,99.90
2019-03-05T23:13:32.869Z,99.90
2019-03-05T23:18:19.046Z,99.90
2019-03-05T23:23:04.921Z,93.50
2019-03-05T23:27:50.662Z,91.80
2019-03-05T23:32:36.484Z,91.30
2019-03-05T23:37:22.602Z,91.30
2019-03-05T23:42:08.477Z,92.10
2019-03-05T23:46:54.335Z,94.70
2019-03-05T23:51:40.252Z,92.80
2019-03-05T23:56:26.096Z,93.20
